sensor_id;sensor_type;location;lat;lon;timestamp;pressure;altitude;pressure_sealevel;temperature;humidity
81379;BME280;70830;42.290;-71.354;2023-07-13T00:02:16;100665.34;;;29.61;48.98
81379;BME280;70830;42.290;-71.354;2023-07-13T00:04:44;100673.88;;;29.58;49.26
81379;BME280;70830;42.290;-71.354;2023-07-13T00:07:09;100672.19;;;29.57;49.04
81379;BME280;70830;42.290;-71.354;2023-07-13T00:09:35;100683.06;;;29.57;49.48
81379;BME280;70830;42.290;-71.354;2023-07-13T00:12:01;100679.41;;;29.50;49.66
81379;BME280;70830;42.290;-71.354;2023-07-13T00:14:28;100670.66;;;29.40;49.56
81379;BME280;70830;42.290;-71.354;2023-07-13T00:16:55;100679.34;;;29.36;49.81
81379;BME280;70830;42.290;-71.354;2023-07-13T00:19:21;100679.75;;;29.33;49.77
81379;BME280;70830;42.290;-71.354;2023-07-13T00:21:47;100677.56;;;29.28;50.01
81379;BME280;70830;42.290;-71.354;2023-07-13T00:24:15;100678.78;;;29.26;50.11
81379;BME280;70830;42.290;-71.354;2023-07-13T00:26:42;100684.56;;;29.23;50.62
81379;BME280;70830;42.290;-71.354;2023-07-13T00:29:12;100678.88;;;29.18;49.58
81379;BME280;70830;42.290;-71.354;2023-07-13T00:31:38;100685.97;;;29.19;49.84
81379;BME280;70830;42.290;-71.354;2023-07-13T00:34:04;100679.19;;;29.15;49.82
81379;BME280;70830;42.290;-71.354;2023-07-13T00:36:31;100687.03;;;29.10;50.63
81379;BME280;70830;42.290;-71.354;2023-07-13T00:38:57;100686.91;;;29.03;50.22
81379;BME280;70830;42.290;-71.354;2023-07-13T00:41:23;100691.69;;;29.01;50.11
81379;BME280;70830;42.290;-71.354;2023-07-13T00:43:50;100690.72;;;28.94;50.53
81379;BME280;70830;42.290;-71.354;2023-07-13T00:46:35;100699.34;;;28.97;50.20
81379;BME280;70830;42.290;-71.354;2023-07-13T00:49:04;100701.22;;;28.97;51.38
81379;BME280;70830;42.290;-71.354;2023-07-13T00:51:45;100689.31;;;28.98;51.04
81379;BME280;70830;42.290;-71.354;2023-07-13T00:54:27;100697.47;;;28.98;49.39
81379;BME280;70830;42.290;-71.354;2023-07-13T00:57:00;100702.44;;;28.94;48.86
81379;BME280;70830;42.290;-71.354;2023-07-13T00:59:26;100704.47;;;28.92;49.14
81379;BME280;70830;42.290;-71.354;2023-07-13T01:01:52;100688.53;;;28.89;48.96
81379;BME280;70830;42.290;-71.354;2023-07-13T01:04:19;100695.16;;;28.87;47.88
81379;BME280;70830;42.290;-71.354;2023-07-13T01:06:45;100698.06;;;28.85;47.34
81379;BME280;70830;42.290;-71.354;2023-07-13T01:09:13;100695.03;;;28.80;47.37
81379;BME280;70830;42.290;-71.354;2023-07-13T01:11:40;100698.97;;;28.78;46.99
81379;BME280;70830;42.290;-71.354;2023-07-13T01:14:07;100703.72;;;28.76;47.48
81379;BME280;70830;42.290;-71.354;2023-07-13T01:16:35;100710.19;;;28.75;47.08
81379;BME280;70830;42.290;-71.354;2023-07-13T01:19:05;100715.31;;;28.70;46.72
81379;BME280;70830;42.290;-71.354;2023-07-13T01:21:33;100706.56;;;28.60;46.90
81379;BME280;70830;42.290;-71.354;2023-07-13T01:23:59;100706.03;;;28.56;46.88
81379;BME280;70830;42.290;-71.354;2023-07-13T01:26:25;100694.69;;;28.53;46.53
81379;BME280;70830;42.290;-71.354;2023-07-13T01:28:51;100702.50;;;28.48;46.75
81379;BME280;70830;42.290;-71.354;2023-07-13T01:31:17;100700.84;;;28.47;46.78
81379;BME280;70830;42.290;-71.354;2023-07-13T01:33:43;100713.72;;;28.45;46.60
81379;BME280;70830;42.290;-71.354;2023-07-13T01:36:10;100714.75;;;28.44;46.51
81379;BME280;70830;42.290;-71.354;2023-07-13T01:38:36;100720.69;;;28.39;47.07
81379;BME280;70830;42.290;-71.354;2023-07-13T01:41:02;100722.94;;;28.36;46.99
81379;BME280;70830;42.290;-71.354;2023-07-13T01:43:29;100713.44;;;28.31;47.75
81379;BME280;70830;42.290;-71.354;2023-07-13T01:45:55;100710.78;;;28.23;47.75
81379;BME280;70830;42.290;-71.354;2023-07-13T01:48:20;100724.50;;;28.22;48.19
81379;BME280;70830;42.290;-71.354;2023-07-13T01:50:47;100723.53;;;28.15;47.83
81379;BME280;70830;42.290;-71.354;2023-07-13T01:53:13;100725.91;;;28.10;48.58
81379;BME280;70830;42.290;-71.354;2023-07-13T01:55:41;100722.84;;;28.05;48.67
81379;BME280;70830;42.290;-71.354;2023-07-13T01:58:08;100727.97;;;28.00;48.76
81379;BME280;70830;42.290;-71.354;2023-07-13T02:00:34;100726.09;;;27.92;49.14
81379;BME280;70830;42.290;-71.354;2023-07-13T02:03:00;100721.38;;;27.86;49.21
81379;BME280;70830;42.290;-71.354;2023-07-13T02:05:25;100718.19;;;27.75;49.30
81379;BME280;70830;42.290;-71.354;2023-07-13T02:07:51;100713.13;;;27.64;49.18
81379;BME280;70830;42.290;-71.354;2023-07-13T02:10:18;100727.50;;;27.56;49.70
81379;BME280;70830;42.290;-71.354;2023-07-13T02:12:44;100723.28;;;27.45;50.24
81379;BME280;70830;42.290;-71.354;2023-07-13T02:15:10;100728.88;;;27.36;50.34
81379;BME280;70830;42.290;-71.354;2023-07-13T02:17:36;100730.88;;;27.26;50.56
81379;BME280;70830;42.290;-71.354;2023-07-13T02:20:03;100722.91;;;27.16;50.79
81379;BME280;70830;42.290;-71.354;2023-07-13T02:22:30;100725.63;;;27.08;51.07
81379;BME280;70830;42.290;-71.354;2023-07-13T02:24:56;100723.56;;;26.94;51.54
81379;BME280;70830;42.290;-71.354;2023-07-13T02:27:22;100723.56;;;26.86;52.27
81379;BME280;70830;42.290;-71.354;2023-07-13T02:29:48;100723.03;;;26.74;52.51
81379;BME280;70830;42.290;-71.354;2023-07-13T02:32:17;100708.06;;;26.62;52.94
81379;BME280;70830;42.290;-71.354;2023-07-13T02:34:43;100712.63;;;26.54;52.98
81379;BME280;70830;42.290;-71.354;2023-07-13T02:37:09;100727.13;;;26.45;53.67
81379;BME280;70830;42.290;-71.354;2023-07-13T02:39:34;100723.03;;;26.33;54.13
81379;BME280;70830;42.290;-71.354;2023-07-13T02:42:01;100734.50;;;26.27;54.26
81379;BME280;70830;42.290;-71.354;2023-07-13T02:44:27;100731.06;;;26.16;55.02
81379;BME280;70830;42.290;-71.354;2023-07-13T02:46:53;100732.84;;;26.08;55.27
81379;BME280;70830;42.290;-71.354;2023-07-13T02:49:19;100732.28;;;25.96;55.89
81379;BME280;70830;42.290;-71.354;2023-07-13T02:51:44;100728.53;;;25.89;56.27
81379;BME280;70830;42.290;-71.354;2023-07-13T02:54:10;100723.25;;;25.80;56.51
81379;BME280;70830;42.290;-71.354;2023-07-13T02:56:39;100726.72;;;25.72;57.01
81379;BME280;70830;42.290;-71.354;2023-07-13T02:59:05;100730.06;;;25.66;57.04
81379;BME280;70830;42.290;-71.354;2023-07-13T03:01:31;100730.69;;;25.60;57.54
81379;BME280;70830;42.290;-71.354;2023-07-13T03:04:01;100726.25;;;25.51;57.96
81379;BME280;70830;42.290;-71.354;2023-07-13T03:06:27;100721.47;;;25.45;57.83
81379;BME280;70830;42.290;-71.354;2023-07-13T03:08:56;100726.44;;;25.40;58.50
81379;BME280;70830;42.290;-71.354;2023-07-13T03:11:21;100726.41;;;25.32;58.70
81379;BME280;70830;42.290;-71.354;2023-07-13T03:13:48;100730.25;;;25.29;58.88
81379;BME280;70830;42.290;-71.354;2023-07-13T03:16:15;100731.03;;;25.22;58.83
81379;BME280;70830;42.290;-71.354;2023-07-13T03:18:42;100731.34;;;25.19;59.29
81379;BME280;70830;42.290;-71.354;2023-07-13T03:21:08;100737.38;;;25.13;59.24
81379;BME280;70830;42.290;-71.354;2023-07-13T03:23:35;100732.56;;;25.07;59.79
81379;BME280;70830;42.290;-71.354;2023-07-13T03:26:08;100726.13;;;25.00;59.76
81379;BME280;70830;42.290;-71.354;2023-07-13T03:28:34;100729.13;;;24.97;60.07
81379;BME280;70830;42.290;-71.354;2023-07-13T03:31:09;100719.63;;;24.93;60.73
81379;BME280;70830;42.290;-71.354;2023-07-13T03:33:35;100732.72;;;24.88;60.74
81379;BME280;70830;42.290;-71.354;2023-07-13T03:36:02;100729.63;;;24.83;61.01
81379;BME280;70830;42.290;-71.354;2023-07-13T03:38:29;100727.41;;;24.78;60.82
81379;BME280;70830;42.290;-71.354;2023-07-13T03:40:55;100730.41;;;24.75;60.92
81379;BME280;70830;42.290;-71.354;2023-07-13T03:43:21;100727.97;;;24.72;61.17
81379;BME280;70830;42.290;-71.354;2023-07-13T03:45:47;100728.28;;;24.69;61.68
81379;BME280;70830;42.290;-71.354;2023-07-13T03:48:14;100716.97;;;24.65;62.13
81379;BME280;70830;42.290;-71.354;2023-07-13T03:50:40;100716.44;;;24.62;61.78
81379;BME280;70830;42.290;-71.354;2023-07-13T03:53:06;100708.09;;;24.55;62.30
81379;BME280;70830;42.290;-71.354;2023-07-13T03:55:32;100718.88;;;24.55;62.82
81379;BME280;70830;42.290;-71.354;2023-07-13T03:58:25;100719.47;;;24.49;62.56
81379;BME280;70830;42.290;-71.354;2023-07-13T04:00:46;100717.91;;;24.47;62.96
81379;BME280;70830;42.290;-71.354;2023-07-13T04:03:12;100725.31;;;24.45;63.46
81379;BME280;70830;42.290;-71.354;2023-07-13T04:05:38;100718.53;;;24.41;63.34
81379;BME280;70830;42.290;-71.354;2023-07-13T04:08:06;100722.06;;;24.41;63.29
81379;BME280;70830;42.290;-71.354;2023-07-13T04:10:32;100726.78;;;24.39;63.43
81379;BME280;70830;42.290;-71.354;2023-07-13T04:12:58;100720.00;;;24.35;63.91
81379;BME280;70830;42.290;-71.354;2023-07-13T04:15:24;100721.13;;;24.33;63.71
81379;BME280;70830;42.290;-71.354;2023-07-13T04:17:50;100708.09;;;24.28;64.16
81379;BME280;70830;42.290;-71.354;2023-07-13T04:20:16;100707.69;;;24.23;64.22
81379;BME280;70830;42.290;-71.354;2023-07-13T04:22:42;100699.22;;;24.18;64.61
81379;BME280;70830;42.290;-71.354;2023-07-13T04:25:08;100700.06;;;24.19;64.49
81379;BME280;70830;42.290;-71.354;2023-07-13T04:27:35;100704.91;;;24.15;64.43
81379;BME280;70830;42.290;-71.354;2023-07-13T04:30:01;100705.19;;;24.12;64.47
81379;BME280;70830;42.290;-71.354;2023-07-13T04:32:27;100702.94;;;24.08;64.88
81379;BME280;70830;42.290;-71.354;2023-07-13T04:34:52;100708.75;;;24.03;64.92
81379;BME280;70830;42.290;-71.354;2023-07-13T04:37:22;100714.75;;;23.97;65.27
81379;BME280;70830;42.290;-71.354;2023-07-13T04:39:48;100706.94;;;23.94;65.36
81379;BME280;70830;42.290;-71.354;2023-07-13T04:42:14;100701.88;;;23.91;65.70
81379;BME280;70830;42.290;-71.354;2023-07-13T04:44:40;100703.84;;;23.89;65.65
81379;BME280;70830;42.290;-71.354;2023-07-13T04:47:05;100699.75;;;23.85;65.89
81379;BME280;70830;42.290;-71.354;2023-07-13T04:49:31;100706.16;;;23.84;65.99
81379;BME280;70830;42.290;-71.354;2023-07-13T04:51:57;100702.19;;;23.78;66.63
81379;BME280;70830;42.290;-71.354;2023-07-13T04:54:23;100703.31;;;23.76;66.69
81379;BME280;70830;42.290;-71.354;2023-07-13T04:56:49;100706.31;;;23.73;66.49
81379;BME280;70830;42.290;-71.354;2023-07-13T04:59:15;100694.16;;;23.69;66.83
81379;BME280;70830;42.290;-71.354;2023-07-13T05:01:41;100710.31;;;23.69;66.83
81379;BME280;70830;42.290;-71.354;2023-07-13T05:04:07;100703.38;;;23.66;66.83
81379;BME280;70830;42.290;-71.354;2023-07-13T05:06:33;100693.16;;;23.60;67.03
81379;BME280;70830;42.290;-71.354;2023-07-13T05:08:59;100701.22;;;23.60;67.21
81379;BME280;70830;42.290;-71.354;2023-07-13T05:11:25;100706.06;;;23.57;67.06
81379;BME280;70830;42.290;-71.354;2023-07-13T05:13:50;100703.66;;;23.54;67.22
81379;BME280;70830;42.290;-71.354;2023-07-13T05:16:16;100701.13;;;23.52;67.53
81379;BME280;70830;42.290;-71.354;2023-07-13T05:18:42;100707.38;;;23.53;67.65
81379;BME280;70830;42.290;-71.354;2023-07-13T05:21:10;100697.72;;;23.50;67.88
81379;BME280;70830;42.290;-71.354;2023-07-13T05:23:37;100696.88;;;23.50;67.74
81379;BME280;70830;42.290;-71.354;2023-07-13T05:26:03;100694.47;;;23.47;67.91
81379;BME280;70830;42.290;-71.354;2023-07-13T05:28:31;100686.69;;;23.44;68.02
81379;BME280;70830;42.290;-71.354;2023-07-13T05:30:57;100688.97;;;23.39;68.52
81379;BME280;70830;42.290;-71.354;2023-07-13T05:33:23;100671.81;;;23.30;68.43
81379;BME280;70830;42.290;-71.354;2023-07-13T05:35:50;100678.19;;;23.29;68.49
81379;BME280;70830;42.290;-71.354;2023-07-13T05:38:16;100676.78;;;23.25;68.70
81379;BME280;70830;42.290;-71.354;2023-07-13T05:40:46;100675.09;;;23.24;69.14
81379;BME280;70830;42.290;-71.354;2023-07-13T05:43:12;100669.44;;;23.17;68.93
81379;BME280;70830;42.290;-71.354;2023-07-13T05:45:39;100673.25;;;23.15;69.39
81379;BME280;70830;42.290;-71.354;2023-07-13T05:48:05;100685.16;;;23.12;69.28
81379;BME280;70830;42.290;-71.354;2023-07-13T05:50:31;100679.50;;;23.06;69.38
81379;BME280;70830;42.290;-71.354;2023-07-13T05:52:57;100681.47;;;23.04;69.82
81379;BME280;70830;42.290;-71.354;2023-07-13T05:55:23;100681.47;;;23.04;69.78
81379;BME280;70830;42.290;-71.354;2023-07-13T05:57:49;100678.09;;;23.02;69.82
81379;BME280;70830;42.290;-71.354;2023-07-13T06:00:15;100678.22;;;23.00;70.07
81379;BME280;70830;42.290;-71.354;2023-07-13T06:02:41;100676.66;;;22.98;70.21
81379;BME280;70830;42.290;-71.354;2023-07-13T06:05:08;100677.94;;;22.94;70.25
81379;BME280;70830;42.290;-71.354;2023-07-13T06:07:34;100680.91;;;22.91;70.11
81379;BME280;70830;42.290;-71.354;2023-07-13T06:09:59;100689.09;;;22.89;71.06
81379;BME280;70830;42.290;-71.354;2023-07-13T06:12:26;100678.66;;;22.86;71.09
81379;BME280;70830;42.290;-71.354;2023-07-13T06:14:52;100676.09;;;22.85;70.58
81379;BME280;70830;42.290;-71.354;2023-07-13T06:17:18;100681.88;;;22.80;70.98
81379;BME280;70830;42.290;-71.354;2023-07-13T06:19:44;100680.06;;;22.81;70.49
81379;BME280;70830;42.290;-71.354;2023-07-13T06:22:10;100674.97;;;22.78;70.53
81379;BME280;70830;42.290;-71.354;2023-07-13T06:24:36;100675.25;;;22.75;70.88
81379;BME280;70830;42.290;-71.354;2023-07-13T06:27:01;100669.28;;;22.71;71.06
81379;BME280;70830;42.290;-71.354;2023-07-13T06:29:27;100666.03;;;22.68;70.86
81379;BME280;70830;42.290;-71.354;2023-07-13T06:31:53;100669.84;;;22.65;71.25
81379;BME280;70830;42.290;-71.354;2023-07-13T06:34:20;100662.81;;;22.64;71.16
81379;BME280;70830;42.290;-71.354;2023-07-13T06:36:46;100663.78;;;22.63;71.53
81379;BME280;70830;42.290;-71.354;2023-07-13T06:39:12;100663.94;;;22.62;71.53
81379;BME280;70830;42.290;-71.354;2023-07-13T06:41:38;100656.94;;;22.59;72.03
81379;BME280;70830;42.290;-71.354;2023-07-13T06:44:04;100655.53;;;22.55;71.84
81379;BME280;70830;42.290;-71.354;2023-07-13T06:46:30;100661.47;;;22.58;71.84
81379;BME280;70830;42.290;-71.354;2023-07-13T06:48:56;100658.06;;;22.56;72.20
81379;BME280;70830;42.290;-71.354;2023-07-13T06:51:22;100655.66;;;22.53;71.81
81379;BME280;70830;42.290;-71.354;2023-07-13T06:53:48;100659.34;;;22.52;72.04
81379;BME280;70830;42.290;-71.354;2023-07-13T06:56:15;100650.69;;;22.49;72.15
81379;BME280;70830;42.290;-71.354;2023-07-13T06:58:41;100651.72;;;22.48;72.45
81379;BME280;70830;42.290;-71.354;2023-07-13T07:01:07;100650.00;;;22.47;72.15
81379;BME280;70830;42.290;-71.354;2023-07-13T07:03:34;100644.31;;;22.40;72.45
81379;BME280;70830;42.290;-71.354;2023-07-13T07:06:07;100652.38;;;22.40;72.89
81379;BME280;70830;42.290;-71.354;2023-07-13T07:08:37;100654.66;;;22.35;73.18
81379;BME280;70830;42.290;-71.354;2023-07-13T07:11:03;100652.09;;;22.34;73.38
81379;BME280;70830;42.290;-71.354;2023-07-13T07:13:29;100655.63;;;22.34;73.65
81379;BME280;70830;42.290;-71.354;2023-07-13T07:15:55;100655.78;;;22.33;73.51
81379;BME280;70830;42.290;-71.354;2023-07-13T07:18:21;100663.16;;;22.31;73.68
81379;BME280;70830;42.290;-71.354;2023-07-13T07:20:49;100673.19;;;22.29;73.04
81379;BME280;70830;42.290;-71.354;2023-07-13T07:23:15;100674.31;;;22.26;74.16
81379;BME280;70830;42.290;-71.354;2023-07-13T07:25:43;100676.38;;;22.23;74.40
81379;BME280;70830;42.290;-71.354;2023-07-13T07:28:09;100681.75;;;22.23;74.43
81379;BME280;70830;42.290;-71.354;2023-07-13T07:30:35;100677.66;;;22.19;74.75
81379;BME280;70830;42.290;-71.354;2023-07-13T07:33:01;100681.31;;;22.18;74.89
81379;BME280;70830;42.290;-71.354;2023-07-13T07:35:27;100688.41;;;22.19;74.94
81379;BME280;70830;42.290;-71.354;2023-07-13T07:37:52;100672.13;;;22.11;74.52
81379;BME280;70830;42.290;-71.354;2023-07-13T07:40:19;100684.28;;;22.15;74.60
81379;BME280;70830;42.290;-71.354;2023-07-13T07:42:45;100681.16;;;22.10;74.42
81379;BME280;70830;42.290;-71.354;2023-07-13T07:45:10;100682.16;;;22.09;74.96
81379;BME280;70830;42.290;-71.354;2023-07-13T07:47:37;100674.22;;;22.07;74.29
81379;BME280;70830;42.290;-71.354;2023-07-13T07:50:04;100673.66;;;22.04;74.36
81379;BME280;70830;42.290;-71.354;2023-07-13T07:52:30;100676.75;;;21.99;74.94
81379;BME280;70830;42.290;-71.354;2023-07-13T07:54:55;100684.94;;;21.98;74.49
81379;BME280;70830;42.290;-71.354;2023-07-13T07:57:21;100682.38;;;21.96;74.93
81379;BME280;70830;42.290;-71.354;2023-07-13T07:59:47;100679.13;;;21.93;75.17
81379;BME280;70830;42.290;-71.354;2023-07-13T08:02:13;100683.50;;;21.94;74.94
81379;BME280;70830;42.290;-71.354;2023-07-13T08:04:39;100680.09;;;21.92;74.65
81379;BME280;70830;42.290;-71.354;2023-07-13T08:07:05;100678.69;;;21.87;75.13
81379;BME280;70830;42.290;-71.354;2023-07-13T08:09:32;100680.66;;;21.85;75.34
81379;BME280;70830;42.290;-71.354;2023-07-13T08:11:58;100676.41;;;21.83;75.03
81379;BME280;70830;42.290;-71.354;2023-07-13T08:14:24;100682.84;;;21.80;75.04
81379;BME280;70830;42.290;-71.354;2023-07-13T08:16:49;100681.88;;;21.81;74.98
81379;BME280;70830;42.290;-71.354;2023-07-13T08:19:15;100675.78;;;21.79;75.00
81379;BME280;70830;42.290;-71.354;2023-07-13T08:21:41;100659.94;;;21.76;75.15
81379;BME280;70830;42.290;-71.354;2023-07-13T08:24:09;100669.81;;;21.76;74.94
81379;BME280;70830;42.290;-71.354;2023-07-13T08:26:35;100662.88;;;21.73;74.95
81379;BME280;70830;42.290;-71.354;2023-07-13T08:29:01;100662.19;;;21.71;75.14
81379;BME280;70830;42.290;-71.354;2023-07-13T08:31:27;100667.69;;;21.70;75.53
81379;BME280;70830;42.290;-71.354;2023-07-13T08:33:53;100672.34;;;21.68;75.39
81379;BME280;70830;42.290;-71.354;2023-07-13T08:36:19;100680.25;;;21.69;75.62
81379;BME280;70830;42.290;-71.354;2023-07-13T08:38:45;100687.34;;;21.70;75.50
81379;BME280;70830;42.290;-71.354;2023-07-13T08:41:14;100680.41;;;21.68;75.66
81379;BME280;70830;42.290;-71.354;2023-07-13T08:43:42;100678.81;;;21.65;75.84
81379;BME280;70830;42.290;-71.354;2023-07-13T08:46:15;100677.97;;;21.65;75.43
81379;BME280;70830;42.290;-71.354;2023-07-13T08:48:47;100682.50;;;21.64;75.89
81379;BME280;70830;42.290;-71.354;2023-07-13T08:51:34;100675.44;;;21.63;75.50
81379;BME280;70830;42.290;-71.354;2023-07-13T08:54:12;100680.22;;;21.60;76.13
81379;BME280;70830;42.290;-71.354;2023-07-13T08:56:45;100677.78;;;21.57;76.40
81379;BME280;70830;42.290;-71.354;2023-07-13T08:59:15;100681.34;;;21.57;75.57
81379;BME280;70830;42.290;-71.354;2023-07-13T09:04:41;100686.94;;;21.54;76.03
81379;BME280;70830;42.290;-71.354;2023-07-13T09:10:03;100698.53;;;21.55;75.75
81379;BME280;70830;42.290;-71.354;2023-07-13T09:12:58;100702.34;;;21.52;75.63
81379;BME280;70830;42.290;-71.354;2023-07-13T09:15:32;100705.28;;;21.49;75.62
81379;BME280;70830;42.290;-71.354;2023-07-13T09:18:15;100703.84;;;21.45;75.84
81379;BME280;70830;42.290;-71.354;2023-07-13T09:20:52;100708.25;;;21.46;76.18
81379;BME280;70830;42.290;-71.354;2023-07-13T09:23:22;100713.72;;;21.45;76.88
81379;BME280;70830;42.290;-71.354;2023-07-13T09:25:53;100721.75;;;21.45;77.03
81379;BME280;70830;42.290;-71.354;2023-07-13T09:28:25;100718.13;;;21.46;76.92
81379;BME280;70830;42.290;-71.354;2023-07-13T09:30:54;100719.94;;;21.45;77.41
81379;BME280;70830;42.290;-71.354;2023-07-13T09:33:22;100730.66;;;21.45;77.14
81379;BME280;70830;42.290;-71.354;2023-07-13T09:35:48;100734.34;;;21.44;77.09
81379;BME280;70830;42.290;-71.354;2023-07-13T09:38:17;100731.66;;;21.44;77.70
81379;BME280;70830;42.290;-71.354;2023-07-13T09:40:56;100728.25;;;21.42;77.84
81379;BME280;70830;42.290;-71.354;2023-07-13T09:43:25;100732.38;;;21.46;77.78
81379;BME280;70830;42.290;-71.354;2023-07-13T09:45:52;100732.09;;;21.49;77.15
81379;BME280;70830;42.290;-71.354;2023-07-13T09:48:18;100739.91;;;21.52;77.44
81379;BME280;70830;42.290;-71.354;2023-07-13T09:50:46;100745.03;;;21.55;76.80
81379;BME280;70830;42.290;-71.354;2023-07-13T09:53:14;100742.78;;;21.60;76.85
81379;BME280;70830;42.290;-71.354;2023-07-13T09:55:43;100737.88;;;21.65;77.07
81379;BME280;70830;42.290;-71.354;2023-07-13T09:58:19;100749.91;;;21.71;76.69
81379;BME280;70830;42.290;-71.354;2023-07-13T10:01:02;100747.81;;;21.74;77.40
81379;BME280;70830;42.290;-71.354;2023-07-13T10:03:32;100755.47;;;21.79;77.14
81379;BME280;70830;42.290;-71.354;2023-07-13T10:06:18;100743.38;;;21.84;77.08
81379;BME280;70830;42.290;-71.354;2023-07-13T10:08:46;100745.41;;;21.92;76.58
81379;BME280;70830;42.290;-71.354;2023-07-13T10:11:28;100744.03;;;21.98;76.95
81379;BME280;70830;42.290;-71.354;2023-07-13T10:14:11;100746.63;;;22.09;76.76
81379;BME280;70830;42.290;-71.354;2023-07-13T10:16:38;100740.00;;;22.13;76.63
81379;BME280;70830;42.290;-71.354;2023-07-13T10:21:57;100746.53;;;22.29;76.01
81379;BME280;70830;42.290;-71.354;2023-07-13T10:24:33;100750.97;;;22.40;75.90
81379;BME280;70830;42.290;-71.354;2023-07-13T10:27:33;100753.69;;;22.49;75.55
81379;BME280;70830;42.290;-71.354;2023-07-13T10:32:35;100755.59;;;22.68;75.04
81379;BME280;70830;42.290;-71.354;2023-07-13T10:35:01;100749.41;;;22.77;74.73
81379;BME280;70830;42.290;-71.354;2023-07-13T10:38:23;100755.78;;;22.86;74.14
81379;BME280;70830;42.290;-71.354;2023-07-13T10:40:30;100754.94;;;22.95;74.20
81379;BME280;70830;42.290;-71.354;2023-07-13T10:43:01;100760.03;;;23.07;73.59
81379;BME280;70830;42.290;-71.354;2023-07-13T10:45:34;100758.22;;;23.17;73.53
81379;BME280;70830;42.290;-71.354;2023-07-13T10:48:02;100769.81;;;23.27;72.63
81379;BME280;70830;42.290;-71.354;2023-07-13T10:50:30;100764.31;;;23.39;72.57
81379;BME280;70830;42.290;-71.354;2023-07-13T10:53:15;100767.28;;;23.64;71.75
81379;BME280;70830;42.290;-71.354;2023-07-13T10:58:31;100759.75;;;24.24;70.15
81379;BME280;70830;42.290;-71.354;2023-07-13T11:03:49;100763.75;;;24.74;68.58
81379;BME280;70830;42.290;-71.354;2023-07-13T11:13:56;100779.91;;;25.72;64.52
81379;BME280;70830;42.290;-71.354;2023-07-13T11:18:51;100777.81;;;26.09;64.06
81379;BME280;70830;42.290;-71.354;2023-07-13T11:21:22;100784.78;;;26.45;62.88
81379;BME280;70830;42.290;-71.354;2023-07-13T11:24:14;100783.69;;;26.72;61.82
81379;BME280;70830;42.290;-71.354;2023-07-13T11:29:36;100770.63;;;27.09;59.73
81379;BME280;70830;42.290;-71.354;2023-07-13T11:32:22;100771.31;;;27.27;59.33
81379;BME280;70830;42.290;-71.354;2023-07-13T11:34:49;100768.13;;;27.56;59.09
81379;BME280;70830;42.290;-71.354;2023-07-13T11:37:17;100770.66;;;27.90;58.02
81379;BME280;70830;42.290;-71.354;2023-07-13T11:39:46;100771.66;;;28.13;56.85
81379;BME280;70830;42.290;-71.354;2023-07-13T11:42:15;100775.00;;;28.31;56.40
81379;BME280;70830;42.290;-71.354;2023-07-13T11:44:45;100784.13;;;28.30;55.29
81379;BME280;70830;42.290;-71.354;2023-07-13T11:47:19;100773.78;;;28.33;55.78
81379;BME280;70830;42.290;-71.354;2023-07-13T11:49:55;100774.75;;;28.49;55.14
81379;BME280;70830;42.290;-71.354;2023-07-13T11:52:34;100786.94;;;28.61;54.98
81379;BME280;70830;42.290;-71.354;2023-07-13T11:55:08;100782.31;;;28.69;53.79
81379;BME280;70830;42.290;-71.354;2023-07-13T11:57:44;100780.25;;;28.79;53.56
81379;BME280;70830;42.290;-71.354;2023-07-13T12:00:12;100784.88;;;28.93;54.01
81379;BME280;70830;42.290;-71.354;2023-07-13T12:02:46;100786.13;;;29.22;53.46
81379;BME280;70830;42.290;-71.354;2023-07-13T12:05:15;100782.34;;;29.45;52.52
81379;BME280;70830;42.290;-71.354;2023-07-13T12:07:44;100778.97;;;29.66;51.28
81379;BME280;70830;42.290;-71.354;2023-07-13T12:10:22;100775.00;;;29.91;50.85
81379;BME280;70830;42.290;-71.354;2023-07-13T12:13:02;100779.81;;;30.18;49.63
81379;BME280;70830;42.290;-71.354;2023-07-13T12:18:09;100775.16;;;30.41;49.30
81379;BME280;70830;42.290;-71.354;2023-07-13T12:20:38;100772.44;;;30.41;48.66
81379;BME280;70830;42.290;-71.354;2023-07-13T12:23:26;100777.59;;;30.36;48.43
81379;BME280;70830;42.290;-71.354;2023-07-13T12:25:54;100766.06;;;30.34;48.42
81379;BME280;70830;42.290;-71.354;2023-07-13T12:30:48;100761.69;;;30.69;48.34
81379;BME280;70830;42.290;-71.354;2023-07-13T12:33:16;100764.56;;;30.97;47.95
81379;BME280;70830;42.290;-71.354;2023-07-13T12:35:47;100750.63;;;31.28;47.76
81379;BME280;70830;42.290;-71.354;2023-07-13T12:38:16;100759.66;;;31.49;46.56
81379;BME280;70830;42.290;-71.354;2023-07-13T12:40:42;100755.13;;;31.56;46.63
81379;BME280;70830;42.290;-71.354;2023-07-13T12:43:15;100757.06;;;31.62;46.92
81379;BME280;70830;42.290;-71.354;2023-07-13T12:46:04;100759.97;;;31.82;47.02
81379;BME280;70830;42.290;-71.354;2023-07-13T12:48:38;100762.38;;;31.98;46.21
81379;BME280;70830;42.290;-71.354;2023-07-13T12:51:10;100759.06;;;32.03;45.45
81379;BME280;70830;42.290;-71.354;2023-07-13T12:53:41;100762.22;;;32.00;46.26
81379;BME280;70830;42.290;-71.354;2023-07-13T12:56:18;100769.03;;;32.17;45.86
81379;BME280;70830;42.290;-71.354;2023-07-13T12:58:47;100765.19;;;32.45;44.96
81379;BME280;70830;42.290;-71.354;2023-07-13T13:01:25;100763.03;;;32.69;45.06
81379;BME280;70830;42.290;-71.354;2023-07-13T13:03:53;100756.38;;;32.84;44.08
81379;BME280;70830;42.290;-71.354;2023-07-13T13:06:28;100770.03;;;32.84;44.13
81379;BME280;70830;42.290;-71.354;2023-07-13T13:08:59;100774.91;;;32.95;43.81
81379;BME280;70830;42.290;-71.354;2023-07-13T13:11:27;100768.22;;;33.04;44.20
81379;BME280;70830;42.290;-71.354;2023-07-13T13:13:53;100767.41;;;33.23;43.03